Cuyahoga County Airport Cleveland US
ICAO: KCGF
IATA: CGF
Category: Medium
Scheduled Services: No

Elevation: 879 ft
TransAlt. 18000 ft.

Airport Communications:
CLEVELAND APP/DEP:125.35
CTAF:118.5
GND/CLNC DEL:121.85
COUNTY TWR:118.5
UNICOM:122.95

KCGF Zoom In..

If you have problems with the map follow the link
https://www.worldairports.se/pages/airport.php?
ICAO=KCGF

Runways:

(A) RW 06 length 5102 ft width 100 ft
---- / hdg 57

(B) RW 24 length 5102 ft width 100 ft
ILS 111.10 / hdg 237

Location; KCGF
Day. 16 / Time. 11.45 Zulu
* Altimeter: 29.85
* Temperature: 01° c. 33.8°f.
* Wind from: 240° Speed 18 kn with Gusts up to 31 kn.
Dewpoint: 00° c.
Visibility: 15 Statute Miles.
Clouds: Overcast 800 ft.

KCGF 161145Z 24018G31KT 15SM OVC008 01/00 A2985


Wind From 240°
Speed 18 kn.

 
 
jpsmedia.com for Web Design worldairports.se 2018   terms of use